createdAt,value
2018-03-06T00:01:37.026Z,27.37
2018-03-06T00:06:10.987Z,15.10
2018-03-06T00:10:44.256Z,24.67
2018-03-06T00:15:18.344Z,20.77
2018-03-06T00:19:52.541Z,33.97
2018-03-06T00:24:25.883Z,20.57
2018-03-06T00:28:59.487Z,25.50
2018-03-06T00:33:32.977Z,34.57
2018-03-06T00:38:06.217Z,42.80
2018-03-06T00:42:39.502Z,37.67
2018-03-06T00:47:12.902Z,29.07
2018-03-06T00:51:46.430Z,26.83
2018-03-06T00:56:19.713Z,27.13
2018-03-06T01:00:53.292Z,41.80
2018-03-06T01:05:26.678Z,38.30
2018-03-06T01:10:00.086Z,34.17
2018-03-06T01:14:34.289Z,20.23
2018-03-06T01:19:08.342Z,19.57
2018-03-06T01:23:42.228Z,16.63
2018-03-06T01:28:16.064Z,23.43
2018-03-06T01:32:49.403Z,20.83
2018-03-06T01:37:22.691Z,15.07
2018-03-06T01:41:55.991Z,16.63
2018-03-06T01:46:29.253Z,28.60
2018-03-06T01:51:03.656Z,21.03
2018-03-06T01:55:36.922Z,23.30
2018-03-06T02:00:11.042Z,26.70
2018-03-06T02:04:44.336Z,23.77
2018-03-06T02:09:18.385Z,25.70
2018-03-06T02:13:52.625Z,25.43
2018-03-06T02:18:26.672Z,23.30
2018-03-06T02:23:00.003Z,41.57
2018-03-06T02:27:33.383Z,45.07
2018-03-06T02:32:07.365Z,16.83
2018-03-06T02:36:41.458Z,27.63
2018-03-06T02:41:14.952Z,32.10
2018-03-06T02:45:48.340Z,17.77
2018-03-06T02:50:22.639Z,16.13
2018-03-06T02:54:56.507Z,17.83
2018-03-06T02:59:30.468Z,21.00
2018-03-06T03:04:03.874Z,18.27
2018-03-06T03:08:37.267Z,21.33
2018-03-06T03:13:10.557Z,23.17
2018-03-06T03:17:44.597Z,22.63
2018-03-06T03:22:18.008Z,28.27
2018-03-06T03:26:51.336Z,21.27
2018-03-06T03:31:24.662Z,18.90
2018-03-06T03:35:57.954Z,16.47
2018-03-06T03:40:31.243Z,20.97
2018-03-06T03:45:04.534Z,17.17
2018-03-06T03:49:37.843Z,19.70
2018-03-06T03:54:11.801Z,21.90
2018-03-06T03:58:45.117Z,20.37
2018-03-06T04:03:18.610Z,20.00
2018-03-06T04:07:52.020Z,18.83
2018-03-06T04:12:26.713Z,19.73
2018-03-06T04:17:00.108Z,19.57
2018-03-06T04:21:33.414Z,19.40
2018-03-06T04:26:07.856Z,18.47
2018-03-06T04:30:41.767Z,17.27
2018-03-06T04:35:17.951Z,17.70
2018-03-06T04:39:51.252Z,22.10
2018-03-06T04:44:24.662Z,19.90
2018-03-06T04:48:58.190Z,18.90
2018-03-06T04:53:31.562Z,20.13
2018-03-06T04:58:04.840Z,20.63
2018-03-06T05:02:39.000Z,42.80
2018-03-06T05:07:12.488Z,29.33
2018-03-06T05:11:46.336Z,21.63
2018-03-06T05:16:20.464Z,21.47
2018-03-06T05:20:53.803Z,24.90
2018-03-06T05:25:27.216Z,30.40
2018-03-06T05:30:01.432Z,31.23
2018-03-06T05:34:34.853Z,32.73
2018-03-06T05:39:08.239Z,22.73
2018-03-06T05:43:42.377Z,27.20
2018-03-06T05:48:15.777Z,30.17
2018-03-06T05:52:49.189Z,39.90
2018-03-06T05:57:23.420Z,39.23
2018-03-06T06:01:57.549Z,29.80
2018-03-06T06:06:30.884Z,18.23
2018-03-06T06:11:04.785Z,24.73
2018-03-06T06:15:38.704Z,25.57
2018-03-06T06:20:12.742Z,19.83
2018-03-06T06:24:47.810Z,20.77
2018-03-06T06:29:21.299Z,25.97
2018-03-06T06:33:54.569Z,27.07
2018-03-06T06:38:27.837Z,30.23
2018-03-06T06:43:01.142Z,44.87
2018-03-06T06:47:34.509Z,60.60
2018-03-06T06:52:09.477Z,40.63
2018-03-06T06:56:43.520Z,72.47
2018-03-06T07:01:16.828Z,31.07
2018-03-06T07:05:50.340Z,31.83
2018-03-06T07:10:25.418Z,37.40
2018-03-06T07:14:59.826Z,38.00
2018-03-06T07:19:33.268Z,37.10
2018-03-06T07:24:08.769Z,32.77
2018-03-06T07:28:42.703Z,30.33
2018-03-06T07:33:16.839Z,38.87
2018-03-06T07:37:51.224Z,35.83
2018-03-06T07:42:24.508Z,35.60
2018-03-06T07:46:58.018Z,39.93
2018-03-06T07:51:32.295Z,37.17
2018-03-06T07:56:05.635Z,54.83
2018-03-06T08:00:39.786Z,48.37
2018-03-06T08:05:13.605Z,33.90
2018-03-06T08:09:46.926Z,28.40
2018-03-06T08:14:20.201Z,34.20
2018-03-06T08:18:54.623Z,31.47
2018-03-06T08:23:27.945Z,29.93
2018-03-06T08:28:02.001Z,35.87
2018-03-06T08:32:36.323Z,35.27
2018-03-06T08:37:10.504Z,35.90
2018-03-06T08:41:43.772Z,56.23
2018-03-06T08:46:17.078Z,57.80
2018-03-06T08:50:50.388Z,43.20
2018-03-06T08:55:23.646Z,35.00
2018-03-06T08:59:56.906Z,34.83
2018-03-06T09:04:30.147Z,36.23
2018-03-06T09:09:03.447Z,36.17
2018-03-06T09:13:37.600Z,41.50
2018-03-06T09:18:10.935Z,37.10
2018-03-06T09:22:45.288Z,39.73
2018-03-06T09:27:18.799Z,53.43
2018-03-06T09:31:52.842Z,52.23
2018-03-06T09:36:26.466Z,50.07
2018-03-06T09:40:59.743Z,54.40
2018-03-06T09:45:33.067Z,50.67
2018-03-06T09:50:06.330Z,57.00
2018-03-06T09:54:39.604Z,56.37
2018-03-06T09:59:20.045Z,54.37
2018-03-06T10:08:27.388Z,68.13
2018-03-06T10:13:00.661Z,69.37
2018-03-06T10:17:33.985Z,58.53
2018-03-06T10:22:08.209Z,66.33
2018-03-06T10:26:42.352Z,57.87
2018-03-06T10:31:17.119Z,58.73
2018-03-06T10:35:50.386Z,54.10
2018-03-06T10:40:24.657Z,56.93
2018-03-06T10:44:57.934Z,62.47
2018-03-06T10:49:31.960Z,54.53
2018-03-06T10:54:06.092Z,58.53
2018-03-06T10:58:40.123Z,51.40
2018-03-06T11:03:14.166Z,55.83
2018-03-06T11:07:47.787Z,60.70
2018-03-06T11:12:21.178Z,49.97
2018-03-06T11:16:55.208Z,56.87
2018-03-06T11:21:29.349Z,50.60
2018-03-06T11:26:02.663Z,53.03
2018-03-06T11:30:36.045Z,48.80
2018-03-06T11:35:10.178Z,45.60
2018-03-06T11:39:44.502Z,49.97
2018-03-06T11:44:18.538Z,45.50
2018-03-06T11:48:52.901Z,50.33
2018-03-06T11:53:26.176Z,45.90
2018-03-06T11:58:00.409Z,52.07
2018-03-06T12:02:34.567Z,49.17
2018-03-06T12:07:07.847Z,47.00
2018-03-06T12:11:42.003Z,51.50
2018-03-06T12:16:16.077Z,45.97
2018-03-06T12:20:51.006Z,55.40
2018-03-06T12:25:24.264Z,43.87
2018-03-06T12:29:57.840Z,77.00
2018-03-06T12:34:31.220Z,42.70
2018-03-06T12:39:05.218Z,45.40
2018-03-06T12:43:39.049Z,45.37
2018-03-06T12:48:13.158Z,57.67
2018-03-06T12:52:48.003Z,52.10
2018-03-06T12:57:21.972Z,46.30
2018-03-06T13:01:55.244Z,37.60
2018-03-06T13:06:28.645Z,41.03
2018-03-06T13:11:02.805Z,33.77
2018-03-06T13:15:36.050Z,29.83
2018-03-06T13:20:09.325Z,32.13
2018-03-06T13:24:42.700Z,31.70
2018-03-06T13:29:17.437Z,39.63
2018-03-06T13:33:51.485Z,41.20
2018-03-06T13:38:24.708Z,39.07
2018-03-06T13:42:58.116Z,45.73
2018-03-06T13:47:31.345Z,44.77
2018-03-06T13:52:05.199Z,41.40
2018-03-06T13:56:38.628Z,41.67
2018-03-06T14:01:12.780Z,39.40
2018-03-06T14:05:46.064Z,37.27
2018-03-06T14:10:20.707Z,37.17
2018-03-06T14:14:54.451Z,38.73
2018-03-06T14:19:27.945Z,36.67
2018-03-06T14:24:02.269Z,36.87
2018-03-06T14:28:36.291Z,33.80
2018-03-06T14:33:10.361Z,33.53
2018-03-06T14:37:43.856Z,34.97
2018-03-06T14:42:17.696Z,37.13
2018-03-06T14:46:52.094Z,52.30
2018-03-06T14:51:27.062Z,98.90
2018-03-06T14:56:00.513Z,36.27
2018-03-06T15:00:34.345Z,39.90
2018-03-06T15:05:07.930Z,41.50
2018-03-06T15:09:41.231Z,49.80
2018-03-06T15:14:14.577Z,45.73
2018-03-06T15:18:47.920Z,32.67
2018-03-06T15:23:22.047Z,29.97
2018-03-06T15:27:56.523Z,41.77
2018-03-06T15:32:29.785Z,38.20
2018-03-06T15:37:04.821Z,32.00
2018-03-06T15:41:38.259Z,29.60
2018-03-06T15:46:12.488Z,31.43
2018-03-06T15:50:46.718Z,27.03
2018-03-06T15:55:20.954Z,32.17
2018-03-06T15:59:54.361Z,29.17
2018-03-06T16:04:28.592Z,31.10
2018-03-06T16:09:02.823Z,31.03
2018-03-06T16:13:36.949Z,30.37
2018-03-06T16:18:11.182Z,31.27
2018-03-06T16:22:45.412Z,28.57
2018-03-06T16:27:18.823Z,30.50
2018-03-06T16:31:52.992Z,28.17
2018-03-06T16:36:26.464Z,34.77
2018-03-06T16:41:00.593Z,30.10
2018-03-06T16:45:33.942Z,28.67
2018-03-06T16:50:07.378Z,30.07
2018-03-06T16:54:40.660Z,48.73
2018-03-06T16:59:14.140Z,39.03
2018-03-06T17:03:48.319Z,40.43
2018-03-06T17:08:21.780Z,31.33
2018-03-06T17:12:56.026Z,25.70
2018-03-06T17:17:29.421Z,19.03
2018-03-06T17:22:03.653Z,20.40
2018-03-06T17:26:37.781Z,23.40
2018-03-06T17:31:12.012Z,21.43
2018-03-06T17:35:46.211Z,18.20
2018-03-06T17:40:19.655Z,20.40
2018-03-06T17:44:53.064Z,17.03
2018-03-06T17:49:27.295Z,25.70
2018-03-06T17:54:01.425Z,20.20
2018-03-06T17:58:35.655Z,20.47
2018-03-06T18:03:09.782Z,18.77
2018-03-06T18:07:44.155Z,18.30
2018-03-06T18:12:18.435Z,18.33
2018-03-06T18:16:51.811Z,16.57
2018-03-06T18:21:25.065Z,16.73
2018-03-06T18:25:59.196Z,18.60
2018-03-06T18:30:33.280Z,20.93
2018-03-06T18:35:06.599Z,18.60
2018-03-06T18:39:39.923Z,22.20
2018-03-06T18:44:13.252Z,29.50
2018-03-06T18:48:47.315Z,28.50
2018-03-06T18:53:20.623Z,22.40
2018-03-06T18:57:54.101Z,16.67
2018-03-06T19:02:41.678Z,17.77
2018-03-06T19:07:16.293Z,20.97
2018-03-06T19:11:51.332Z,37.70
2018-03-06T19:16:25.404Z,30.67
2018-03-06T19:20:58.680Z,37.53
2018-03-06T19:25:31.982Z,33.40
2018-03-06T19:30:06.071Z,33.20
2018-03-06T19:34:39.358Z,29.50
2018-03-06T19:39:12.625Z,30.77
2018-03-06T19:43:46.667Z,27.27
2018-03-06T19:48:19.929Z,26.80
2018-03-06T19:52:53.990Z,24.10
2018-03-06T19:57:27.515Z,42.63
2018-03-06T20:02:01.125Z,24.13
2018-03-06T20:06:34.358Z,22.00
2018-03-06T20:11:07.832Z,18.60
2018-03-06T20:15:41.958Z,19.57
2018-03-06T20:20:16.100Z,28.43
2018-03-06T20:24:54.927Z,35.10
2018-03-06T20:29:28.990Z,30.03
2018-03-06T20:34:02.301Z,59.00
2018-03-06T20:43:42.747Z,37.27
2018-03-06T20:48:16.118Z,20.43
2018-03-06T20:52:55.335Z,34.37
2018-03-06T20:57:28.604Z,77.23
2018-03-06T21:02:01.872Z,66.87
2018-03-06T21:06:35.770Z,29.90
2018-03-06T21:11:09.178Z,46.03
2018-03-06T21:15:43.330Z,28.07
2018-03-06T21:20:17.311Z,89.73
2018-03-06T21:24:52.102Z,36.37
2018-03-06T21:29:25.861Z,49.23
2018-03-06T21:33:59.172Z,35.00
2018-03-06T21:38:32.438Z,32.80
2018-03-06T21:43:05.672Z,49.23
2018-03-06T21:47:39.134Z,69.03
2018-03-06T21:52:13.397Z,38.37
2018-03-06T21:56:47.495Z,43.70
2018-03-06T22:01:22.417Z,36.23
2018-03-06T22:05:56.395Z,33.07
2018-03-06T22:10:29.646Z,42.63
2018-03-06T22:15:03.403Z,39.33
2018-03-06T22:19:38.066Z,47.27
2018-03-06T22:24:11.352Z,43.30
2018-03-06T22:28:44.679Z,31.17
2018-03-06T22:33:18.573Z,40.80
2018-03-06T22:37:52.702Z,37.07
2018-03-06T22:42:26.831Z,37.93
2018-03-06T22:47:00.863Z,36.27
2018-03-06T22:51:34.894Z,39.27
2018-03-06T22:56:08.217Z,70.20
2018-03-06T23:00:41.602Z,42.37
2018-03-06T23:05:15.633Z,38.50
2018-03-06T23:09:49.675Z,49.43
2018-03-06T23:14:23.683Z,44.33
2018-03-06T23:18:57.725Z,38.93
2018-03-06T23:23:31.014Z,49.10
2018-03-06T23:28:05.028Z,32.83
2018-03-06T23:32:38.248Z,33.07
2018-03-06T23:37:12.290Z,40.00
2018-03-06T23:41:45.522Z,32.47
2018-03-06T23:46:18.891Z,26.93
2018-03-06T23:50:52.937Z,30.53
2018-03-06T23:55:26.249Z,26.50
2018-03-06T23:59:59.507Z,25.50
